createdAt,value
2022-12-16T00:00:22.923Z,96096.31
2022-12-16T00:04:26.639Z,96090.72
2022-12-16T00:08:32.321Z,96085.06
2022-12-16T00:12:35.415Z,96091.09
2022-12-16T00:16:38.858Z,96084.84
2022-12-16T00:20:46.153Z,96081.91
2022-12-16T00:24:50.710Z,96101.47
2022-12-16T00:28:54.137Z,96102.91
2022-12-16T00:32:57.922Z,96084.94
2022-12-16T00:37:01.331Z,96085.22
2022-12-16T00:41:06.128Z,96113.97
2022-12-16T00:45:10.131Z,96107.91
2022-12-16T00:49:13.179Z,96105.53
2022-12-16T00:53:16.704Z,96111.56
2022-12-16T00:57:21.465Z,96134.78
2022-12-16T01:01:25.130Z,96154.38
2022-12-16T01:05:28.349Z,96144.38
2022-12-16T01:09:31.702Z,96126.25
2022-12-16T01:13:36.436Z,96131.25
2022-12-16T01:17:39.917Z,96119.66
2022-12-16T01:21:43.051Z,96125.06
2022-12-16T01:25:46.417Z,96121.25
2022-12-16T01:29:51.728Z,96130.59
2022-12-16T01:33:55.586Z,96128.53
2022-12-16T01:38:01.310Z,96129.34
2022-12-16T01:42:04.834Z,96126.19
2022-12-16T01:46:15.450Z,96131.69
2022-12-16T01:50:20.530Z,96128.81
2022-12-16T01:54:27.942Z,96146.53
2022-12-16T01:58:35.042Z,96125.28
2022-12-16T02:02:39.976Z,96146.06
2022-12-16T02:06:43.139Z,96124.53
2022-12-16T02:11:01.857Z,96127.94
2022-12-16T02:15:25.343Z,96138.84
2022-12-16T02:20:05.337Z,96131.28
2022-12-16T02:24:52.950Z,96119.09
2022-12-16T02:29:22.786Z,96115.72
2022-12-16T02:33:47.680Z,96117.34
2022-12-16T02:37:58.501Z,96135.94
2022-12-16T02:42:08.623Z,96133.59
2022-12-16T02:46:12.412Z,96137.06
2022-12-16T02:50:23.617Z,96126.63
2022-12-16T02:54:28.412Z,96145.19
2022-12-16T02:58:41.000Z,96146.47
2022-12-16T03:02:49.796Z,96158.06
2022-12-16T03:06:56.818Z,96169.75
2022-12-16T03:11:04.167Z,96179.88
2022-12-16T03:15:09.487Z,96178.25
2022-12-16T03:19:14.030Z,96180.66
2022-12-16T03:23:23.387Z,96184.69
2022-12-16T03:27:30.357Z,96188.53
2022-12-16T03:31:42.200Z,96189.53
2022-12-16T03:35:51.929Z,96188.97
2022-12-16T03:40:02.605Z,96180.59
2022-12-16T03:44:06.231Z,96162.28
2022-12-16T03:48:11.328Z,96150.34
2022-12-16T03:52:14.419Z,96139.25
2022-12-16T03:56:19.066Z,96182.13
2022-12-16T04:00:23.178Z,96182.94
2022-12-16T04:04:26.749Z,96189.41
2022-12-16T04:08:30.297Z,96185.88
2022-12-16T04:12:52.393Z,96189.09
2022-12-16T04:17:13.567Z,96195.06
2022-12-16T04:21:33.795Z,96191.00
2022-12-16T04:25:39.467Z,96198.72
2022-12-16T04:29:57.788Z,96215.94
2022-12-16T04:34:33.272Z,96233.84
2022-12-16T04:38:53.648Z,96235.25
2022-12-16T04:43:14.465Z,96248.09
2022-12-16T04:47:36.684Z,96265.81
2022-12-16T04:51:57.150Z,96267.06
2022-12-16T04:56:17.875Z,96286.38
2022-12-16T05:00:39.261Z,96285.81
2022-12-16T05:05:01.399Z,96293.88
2022-12-16T05:09:22.819Z,96294.56
2022-12-16T05:13:43.270Z,96310.66
2022-12-16T05:18:03.920Z,96304.56
2022-12-16T05:22:25.790Z,96312.13
2022-12-16T05:26:46.701Z,96311.31
2022-12-16T05:31:07.007Z,96301.84
2022-12-16T05:35:33.147Z,96305.19
2022-12-16T05:39:55.502Z,96303.44
2022-12-16T05:44:16.006Z,96298.44
2022-12-16T05:48:36.509Z,96313.06
2022-12-16T05:52:57.951Z,96326.09
2022-12-16T05:57:20.048Z,96333.81
2022-12-16T06:01:40.693Z,96342.31
2022-12-16T06:06:35.216Z,96348.28
2022-12-16T06:10:56.415Z,96347.59
2022-12-16T06:15:18.587Z,96353.72
2022-12-16T06:19:39.054Z,96363.16
2022-12-16T06:23:59.236Z,96382.97
2022-12-16T06:28:20.394Z,96387.28
2022-12-16T06:32:42.523Z,96396.59
2022-12-16T06:37:03.623Z,96410.44
2022-12-16T06:41:24.623Z,96407.84
2022-12-16T06:45:45.483Z,96408.69
2022-12-16T06:50:07.715Z,96427.47
2022-12-16T06:54:28.012Z,96436.00
2022-12-16T06:58:49.061Z,96456.31
2022-12-16T07:03:09.290Z,96471.72
2022-12-16T07:07:33.379Z,96485.25
2022-12-16T07:11:54.169Z,96486.88
2022-12-16T07:16:14.679Z,96497.69
2022-12-16T07:20:35.370Z,96498.38
2022-12-16T07:24:57.119Z,96499.69
2022-12-16T07:29:18.183Z,96511.31
2022-12-16T07:33:38.575Z,96518.75
2022-12-16T07:37:59.069Z,96529.72
2022-12-16T07:42:20.760Z,96539.59
2022-12-16T07:46:41.582Z,96551.50
2022-12-16T07:51:01.900Z,96569.25
2022-12-16T07:55:23.268Z,96564.75
2022-12-16T07:59:45.166Z,96575.59
2022-12-16T08:04:06.130Z,96579.78
2022-12-16T08:08:35.047Z,96587.34
2022-12-16T08:12:56.651Z,96589.66
2022-12-16T08:17:19.211Z,96579.91
2022-12-16T08:21:40.237Z,96588.13
2022-12-16T08:26:01.129Z,96593.53
2022-12-16T08:30:22.169Z,96605.84
2022-12-16T08:34:43.808Z,96612.19
2022-12-16T08:39:04.619Z,96618.66
2022-12-16T08:43:25.449Z,96618.25
2022-12-16T08:47:46.338Z,96641.00
2022-12-16T08:52:08.679Z,96651.00
2022-12-16T08:56:29.467Z,96653.44
2022-12-16T09:00:52.695Z,96656.69
2022-12-16T09:05:12.801Z,96664.28
2022-12-16T09:09:34.912Z,96664.81
2022-12-16T09:13:55.456Z,96672.09
2022-12-16T09:18:16.283Z,96668.94
2022-12-16T09:22:37.031Z,96668.38
2022-12-16T09:26:59.314Z,96672.00
2022-12-16T09:31:20.472Z,96690.16
2022-12-16T09:35:41.063Z,96693.25
2022-12-16T09:40:01.950Z,96690.38
2022-12-16T09:44:34.828Z,96709.25
2022-12-16T09:49:05.035Z,96721.16
2022-12-16T09:53:31.116Z,96710.84
2022-12-16T09:57:54.382Z,96716.97
2022-12-16T10:02:18.828Z,96720.78
2022-12-16T10:06:52.093Z,96724.88
2022-12-16T10:11:15.507Z,96719.84
2022-12-16T10:15:49.216Z,96728.97
2022-12-16T10:20:19.422Z,96722.22
2022-12-16T10:24:51.128Z,96735.78
2022-12-16T10:29:21.965Z,96749.31
2022-12-16T10:33:53.075Z,96759.34
2022-12-16T10:38:15.745Z,96755.66
2022-12-16T10:42:43.260Z,96755.81
2022-12-16T10:47:04.229Z,96748.34
2022-12-16T10:51:31.521Z,96753.63
2022-12-16T10:56:06.326Z,96746.88
2022-12-16T11:00:29.314Z,96758.97
2022-12-16T11:04:54.269Z,96751.25
2022-12-16T11:09:34.118Z,96750.94
2022-12-16T11:13:56.763Z,96746.31
2022-12-16T11:18:22.310Z,96734.63
2022-12-16T11:22:43.018Z,96733.38
2022-12-16T11:27:12.428Z,96737.13
2022-12-16T11:31:35.849Z,96739.81
2022-12-16T11:36:00.254Z,96751.03
2022-12-16T11:40:27.181Z,96748.53
2022-12-16T11:44:52.393Z,96748.28
2022-12-16T11:49:24.689Z,96758.78
2022-12-16T11:54:04.844Z,96762.56
2022-12-16T11:58:36.612Z,96766.31
2022-12-16T12:03:03.771Z,96774.81
2022-12-16T12:07:44.827Z,96782.78
2022-12-16T12:12:12.959Z,96768.09
2022-12-16T12:16:39.046Z,96771.94
2022-12-16T12:21:09.190Z,96780.06
2022-12-16T12:25:41.296Z,96775.56
2022-12-16T12:30:16.591Z,96767.59
2022-12-16T12:34:47.863Z,96787.28
2022-12-16T12:39:21.562Z,96800.78
2022-12-16T12:44:14.675Z,96803.50
2022-12-16T12:48:41.471Z,96810.47
2022-12-16T12:53:21.032Z,96815.91
2022-12-16T12:57:44.669Z,96821.84
2022-12-16T13:02:10.075Z,96834.47
2022-12-16T13:06:34.155Z,96830.28
2022-12-16T13:10:56.556Z,96842.50
2022-12-16T13:15:24.388Z,96847.81
2022-12-16T13:20:04.270Z,96850.31
2022-12-16T13:24:39.739Z,96857.97
2022-12-16T13:29:11.992Z,96856.25
2022-12-16T13:33:51.265Z,96866.31
2022-12-16T13:38:15.449Z,96867.69
2022-12-16T13:43:12.942Z,96872.78
2022-12-16T13:47:49.081Z,96877.78
2022-12-16T13:52:20.151Z,96882.56
2022-12-16T13:56:48.692Z,96879.88
2022-12-16T14:01:23.645Z,96890.59
2022-12-16T14:05:47.891Z,96900.66
2022-12-16T14:10:17.485Z,96909.34
2022-12-16T14:14:44.718Z,96912.19
2022-12-16T14:19:20.412Z,96906.66
2022-12-16T14:23:58.849Z,96925.91
2022-12-16T14:28:20.275Z,96929.72
2022-12-16T14:32:46.946Z,96926.47
2022-12-16T14:37:09.706Z,96881.19
2022-12-16T14:41:31.402Z,96942.47
2022-12-16T14:45:54.247Z,96956.59
2022-12-16T14:50:16.728Z,96953.03
2022-12-16T14:54:41.148Z,96959.28
2022-12-16T14:59:13.325Z,96964.69
2022-12-16T15:03:39.952Z,96961.03
2022-12-16T15:08:03.183Z,96977.84
2022-12-16T15:12:26.031Z,96984.22
2022-12-16T15:16:57.026Z,96985.84
2022-12-16T15:21:18.229Z,96984.09
2022-12-16T15:25:43.230Z,97001.28
2022-12-16T15:30:12.345Z,97006.84
2022-12-16T15:34:40.992Z,97006.97
2022-12-16T15:39:02.160Z,97019.31
2022-12-16T15:43:24.026Z,97014.28
2022-12-16T15:47:46.853Z,97022.16
2022-12-16T15:52:08.552Z,97032.19
2022-12-16T15:56:36.492Z,97035.53
2022-12-16T16:00:58.769Z,97043.81
2022-12-16T16:05:19.831Z,97044.88
2022-12-16T16:09:41.793Z,97048.13
2022-12-16T16:14:08.271Z,97068.31
2022-12-16T16:18:32.800Z,97064.94
2022-12-16T16:22:53.570Z,97071.19
2022-12-16T16:27:15.713Z,97073.75
2022-12-16T16:31:36.439Z,97080.66
2022-12-16T16:35:58.911Z,97089.19
2022-12-16T16:40:20.674Z,97080.34
2022-12-16T16:44:40.601Z,97089.44
2022-12-16T16:49:02.078Z,97099.06
2022-12-16T16:53:23.807Z,97103.09
2022-12-16T16:57:45.750Z,97116.59
2022-12-16T17:02:06.255Z,97130.09
2022-12-16T17:06:27.158Z,97133.44
2022-12-16T17:10:49.226Z,97131.38
2022-12-16T17:15:09.604Z,97143.78
2022-12-16T17:19:29.871Z,97125.16
2022-12-16T17:23:50.935Z,97145.75
2022-12-16T17:28:09.326Z,97148.03
2022-12-16T17:32:30.767Z,97155.31
2022-12-16T17:36:51.468Z,97164.00
2022-12-16T17:41:12.587Z,97180.59
2022-12-16T17:45:34.400Z,97184.22
2022-12-16T17:49:55.109Z,97181.09
2022-12-16T17:54:23.915Z,97176.19
2022-12-16T17:58:50.325Z,97189.06
2022-12-16T18:03:12.570Z,97198.41
2022-12-16T18:07:33.126Z,97203.66
2022-12-16T18:11:54.104Z,97206.22
2022-12-16T18:16:15.116Z,97213.13
2022-12-16T18:20:37.327Z,97219.91
2022-12-16T18:24:57.804Z,97225.19
2022-12-16T18:29:18.337Z,97229.59
2022-12-16T18:33:38.442Z,97244.25
2022-12-16T18:38:00.792Z,97240.00
2022-12-16T18:42:21.501Z,97254.75
2022-12-16T18:46:44.706Z,97255.69
2022-12-16T18:51:12.233Z,97265.06
2022-12-16T18:55:34.525Z,97267.75
2022-12-16T18:59:56.310Z,97277.19
2022-12-16T19:04:17.321Z,97273.69
2022-12-16T19:08:38.813Z,97280.00
2022-12-16T19:13:00.597Z,97287.00
2022-12-16T19:17:21.884Z,97293.22
2022-12-16T19:21:46.904Z,97297.66
2022-12-16T19:26:16.090Z,97304.56
2022-12-16T19:30:44.632Z,97308.97
2022-12-16T19:35:18.326Z,97315.19
2022-12-16T19:39:40.429Z,97318.94
2022-12-16T19:48:45.855Z,97343.25
2022-12-16T19:53:06.897Z,97346.03
2022-12-16T19:57:28.179Z,97348.72
2022-12-16T20:01:49.159Z,97346.38
2022-12-16T20:06:20.283Z,97353.38
2022-12-16T20:10:41.692Z,97368.22
2022-12-16T20:15:01.942Z,97369.28
2022-12-16T20:19:22.790Z,97367.63
2022-12-16T20:23:44.848Z,97381.41
2022-12-16T20:28:05.738Z,97391.81
2022-12-16T20:32:26.754Z,97392.75
2022-12-16T20:36:46.877Z,97405.72
2022-12-16T20:41:16.505Z,97412.47
2022-12-16T20:45:38.547Z,97420.28
2022-12-16T20:49:59.545Z,97417.84
2022-12-16T20:54:20.432Z,97431.63
2022-12-16T20:58:42.764Z,97426.81
2022-12-16T21:03:03.316Z,97445.84
2022-12-16T21:07:38.853Z,97452.25
2022-12-16T21:11:59.446Z,97472.22
2022-12-16T21:16:23.852Z,97469.63
2022-12-16T21:20:44.207Z,97474.06
2022-12-16T21:25:04.907Z,97481.06
2022-12-16T21:29:25.796Z,97482.91
2022-12-16T21:33:48.203Z,97481.28
2022-12-16T21:38:10.695Z,97496.69
2022-12-16T21:42:35.077Z,97494.34
2022-12-16T21:47:00.731Z,97509.97
2022-12-16T21:51:22.918Z,97509.28
2022-12-16T21:55:52.990Z,97515.44
2022-12-16T22:00:15.833Z,97535.16
2022-12-16T22:04:40.082Z,97537.75
2022-12-16T22:09:06.323Z,97535.28
2022-12-16T22:13:27.035Z,97536.28
2022-12-16T22:18:01.950Z,97533.72
2022-12-16T22:22:22.613Z,97531.16
2022-12-16T22:26:45.081Z,97537.94
2022-12-16T22:31:15.810Z,97538.84
2022-12-16T22:35:36.942Z,97547.28
2022-12-16T22:39:57.290Z,97557.56
2022-12-16T22:44:21.610Z,97565.38
2022-12-16T22:48:42.033Z,97565.38
2022-12-16T22:53:02.757Z,97571.53
2022-12-16T22:57:23.646Z,97568.97
2022-12-16T23:01:46.061Z,97578.53
2022-12-16T23:06:06.368Z,97571.88
2022-12-16T23:10:27.649Z,97580.41
2022-12-16T23:14:48.344Z,97588.19
2022-12-16T23:19:11.312Z,97583.88
2022-12-16T23:23:31.954Z,97594.88
2022-12-16T23:27:52.545Z,97593.94
2022-12-16T23:32:14.380Z,97588.91
2022-12-16T23:36:36.051Z,97600.00
2022-12-16T23:40:56.634Z,97589.72
2022-12-16T23:45:17.454Z,97603.50
2022-12-16T23:49:38.108Z,97597.03
2022-12-16T23:54:05.317Z,97612.00
2022-12-16T23:58:25.984Z,97613.78
